TVF1760 LFML-LFPG
Flight info
| Callsign | TVF1760 |
|---|---|
| Flight time | N/A |
| Altitude | 34000 |
| Route | ETREK DCT RUSIT DCT BULOL DCT LOGNI DCT MOKIP DCT ARFOZ DCT TINIL TINIL9EXOKIPA1N/08R |
| Aircraft | A320/M-SDE3FGHIRWY/LB1 |
Departure
| Time | N/A |
|---|---|
| Airport | Marseille Provence Airport (LFML) |
Arrival
| Time | 2026-05-04 22:02 |
|---|---|
| Airport | Charles de Gaulle International Airport (LFPG) |
| Time | Latitude | Longitude | Altitude | Speed | Heading |
|---|---|---|---|---|---|
| 2026-05-04 21:57 | 48.97598 | 2.22317 | 4695 ft | 199 kts | 96° |
| 2026-05-04 21:57 | 48.97560 | 2.24402 | 4486 ft | 198 kts | 88° |
| 2026-05-04 21:57 | 48.97640 | 2.26505 | 4228 ft | 199 kts | 85° |
| 2026-05-04 21:57 | 48.97751 | 2.28608 | 3962 ft | 200 kts | 85° |
| 2026-05-04 21:58 | 48.97868 | 2.30706 | 3717 ft | 196 kts | 84° |
| 2026-05-04 21:58 | 48.97982 | 2.32744 | 3442 ft | 191 kts | 84° |
| 2026-05-04 21:58 | 48.98097 | 2.34798 | 3181 ft | 185 kts | 84° |
| 2026-05-04 21:58 | 48.98201 | 2.36657 | 2936 ft | 180 kts | 84° |
| 2026-05-04 21:59 | 48.98311 | 2.38638 | 2686 ft | 175 kts | 84° |
| 2026-05-04 21:59 | 48.98404 | 2.40339 | 2462 ft | 165 kts | 84° |
| 2026-05-04 21:59 | 48.98498 | 2.42030 | 2251 ft | 156 kts | 84° |
| 2026-05-04 21:59 | 48.98588 | 2.43672 | 2040 ft | 148 kts | 83° |
| 2026-05-04 22:00 | 48.98670 | 2.45152 | 1877 ft | 140 kts | 83° |
| 2026-05-04 22:00 | 48.98750 | 2.46606 | 1694 ft | 136 kts | 83° |
| 2026-05-04 22:00 | 48.98828 | 2.48034 | 1490 ft | 135 kts | 84° |
| 2026-05-04 22:00 | 48.98907 | 2.49470 | 1303 ft | 135 kts | 83° |
| 2026-05-04 22:01 | 48.98982 | 2.50858 | 1115 ft | 136 kts | 84° |
| 2026-05-04 22:01 | 48.99045 | 2.52199 | 948 ft | 137 kts | 83° |
| 2026-05-04 22:01 | 48.99125 | 2.53670 | 719 ft | 137 kts | 84° |
| 2026-05-04 22:01 | 48.99196 | 2.55098 | 633 ft | 138 kts | 84° |
| 2026-05-04 22:02 | 48.99278 | 2.56551 | 447 ft | 137 kts | 83° |
| 2026-05-04 22:02 | 48.99364 | 2.57979 | 353 ft | 128 kts | 84° |
| 2026-05-04 22:02 | 48.99432 | 2.59070 | 351 ft | 78 kts | 86° |
| 2026-05-04 22:02 | 48.99464 | 2.59648 | 352 ft | 43 kts | 84° |
| 2026-05-04 22:03 | 48.99501 | 2.59892 | 362 ft | 16 kts | 51° |
| 2026-05-04 22:03 | 48.99562 | 2.59967 | 356 ft | 11 kts | 24° |
| 2026-05-04 22:03 | 48.99641 | 2.59973 | 357 ft | 12 kts | 355° |
| 2026-05-04 22:03 | 48.99733 | 2.59965 | 355 ft | 14 kts | 357° |
| 2026-05-04 22:04 | 48.99837 | 2.59958 | 355 ft | 16 kts | 0° |
| 2026-05-04 22:04 | 48.99934 | 2.60061 | 358 ft | 18 kts | 40° |
| 2026-05-04 22:04 | 49.00010 | 2.60011 | 359 ft | 15 kts | 276° |
| 2026-05-04 22:04 | 49.00003 | 2.59850 | 354 ft | 15 kts | 265° |
| 2026-05-04 22:05 | 48.99996 | 2.59690 | 357 ft | 15 kts | 266° |
| 2026-05-04 22:05 | 48.99988 | 2.59528 | 362 ft | 15 kts | 264° |
| 2026-05-04 22:05 | 48.99978 | 2.59364 | 358 ft | 15 kts | 265° |
| 2026-05-04 22:05 | 48.99968 | 2.59202 | 354 ft | 16 kts | 265° |
| 2026-05-04 22:06 | 48.99960 | 2.59035 | 357 ft | 16 kts | 265° |
| 2026-05-04 22:06 | 48.99951 | 2.58861 | 354 ft | 17 kts | 266° |
| 2026-05-04 22:06 | 48.99943 | 2.58674 | 358 ft | 19 kts | 266° |
| 2026-05-04 22:06 | 48.99930 | 2.58468 | 362 ft | 21 kts | 264° |
| 2026-05-04 22:07 | 48.99952 | 2.58302 | 360 ft | 17 kts | 325° |
| 2026-05-04 22:07 | 49.00055 | 2.58318 | 354 ft | 8 kts | 2° |
| 2026-05-04 22:07 | 49.00085 | 2.58354 | 354 ft | 5 kts | 72° |
| 2026-05-04 22:07 | 49.00088 | 2.58402 | 361 ft | 4 kts | 85° |
| 2026-05-04 22:08 | 49.00089 | 2.58432 | 354 ft | 0 kts | 85° |